sensor_id;sensor_type;location;lat;lon;timestamp;temperature;humidity
9311;DHT22;4694;52.464;13.480;2023-08-01T00:01:37;18.40;99.90
9311;DHT22;4694;52.464;13.480;2023-08-01T00:04:07;18.40;99.90
9311;DHT22;4694;52.464;13.480;2023-08-01T00:06:33;18.30;99.90
9311;DHT22;4694;52.464;13.480;2023-08-01T00:09:02;18.30;99.90
9311;DHT22;4694;52.464;13.480;2023-08-01T00:11:28;18.20;99.90
9311;DHT22;4694;52.464;13.480;2023-08-01T00:13:55;18.20;99.90
9311;DHT22;4694;52.464;13.480;2023-08-01T00:16:23;18.10;99.90
9311;DHT22;4694;52.464;13.480;2023-08-01T00:18:53;18.10;99.90
9311;DHT22;4694;52.464;13.480;2023-08-01T00:21:21;18.00;99.90
9311;DHT22;4694;52.464;13.480;2023-08-01T00:23:48;18.00;99.90
9311;DHT22;4694;52.464;13.480;2023-08-01T00:26:22;17.90;99.90
9311;DHT22;4694;52.464;13.480;2023-08-01T00:28:49;17.90;99.90
9311;DHT22;4694;52.464;13.480;2023-08-01T00:31:16;17.80;99.90
9311;DHT22;4694;52.464;13.480;2023-08-01T00:33:42;17.70;99.90
9311;DHT22;4694;52.464;13.480;2023-08-01T00:36:10;17.70;99.90
9311;DHT22;4694;52.464;13.480;2023-08-01T00:38:37;17.60;99.90
9311;DHT22;4694;52.464;13.480;2023-08-01T00:41:05;17.50;99.90
9311;DHT22;4694;52.464;13.480;2023-08-01T00:43:33;17.40;99.90
9311;DHT22;4694;52.464;13.480;2023-08-01T00:46:04;17.40;99.90
9311;DHT22;4694;52.464;13.480;2023-08-01T00:48:30;17.30;99.90
9311;DHT22;4694;52.464;13.480;2023-08-01T00:50:58;17.20;99.90
9311;DHT22;4694;52.464;13.480;2023-08-01T00:53:25;17.10;99.90
9311;DHT22;4694;52.464;13.480;2023-08-01T00:55:52;17.10;99.90
9311;DHT22;4694;52.464;13.480;2023-08-01T00:58:20;17.10;99.90
9311;DHT22;4694;52.464;13.480;2023-08-01T01:00:48;17.10;99.90
9311;DHT22;4694;52.464;13.480;2023-08-01T01:03:15;17.00;99.90
9311;DHT22;4694;52.464;13.480;2023-08-01T01:05:49;17.00;99.90
9311;DHT22;4694;52.464;13.480;2023-08-01T01:08:19;17.00;99.90
9311;DHT22;4694;52.464;13.480;2023-08-01T01:10:46;17.00;99.90
9311;DHT22;4694;52.464;13.480;2023-08-01T01:13:12;17.00;99.90
9311;DHT22;4694;52.464;13.480;2023-08-01T01:15:39;17.00;99.90
9311;DHT22;4694;52.464;13.480;2023-08-01T01:18:08;16.90;99.90
9311;DHT22;4694;52.464;13.480;2023-08-01T01:20:36;16.90;99.90
9311;DHT22;4694;52.464;13.480;2023-08-01T01:23:04;16.90;99.90
9311;DHT22;4694;52.464;13.480;2023-08-01T01:25:32;16.90;99.90
9311;DHT22;4694;52.464;13.480;2023-08-01T01:28:04;16.90;99.90
9311;DHT22;4694;52.464;13.480;2023-08-01T01:30:32;16.90;99.90
9311;DHT22;4694;52.464;13.480;2023-08-01T01:33:00;16.90;99.90
9311;DHT22;4694;52.464;13.480;2023-08-01T01:35:27;16.90;99.90
9311;DHT22;4694;52.464;13.480;2023-08-01T01:37:55;16.90;99.90
9311;DHT22;4694;52.464;13.480;2023-08-01T01:40:24;16.90;99.90
9311;DHT22;4694;52.464;13.480;2023-08-01T01:42:51;16.90;99.90
9311;DHT22;4694;52.464;13.480;2023-08-01T01:45:17;16.90;99.90
9311;DHT22;4694;52.464;13.480;2023-08-01T01:47:44;16.90;99.90
9311;DHT22;4694;52.464;13.480;2023-08-01T01:50:11;16.90;99.90
9311;DHT22;4694;52.464;13.480;2023-08-01T01:52:37;16.90;99.90
9311;DHT22;4694;52.464;13.480;2023-08-01T01:55:06;16.90;99.90
9311;DHT22;4694;52.464;13.480;2023-08-01T01:57:33;16.90;99.90
9311;DHT22;4694;52.464;13.480;2023-08-01T02:00:01;16.90;99.90
9311;DHT22;4694;52.464;13.480;2023-08-01T02:02:29;16.90;99.90
9311;DHT22;4694;52.464;13.480;2023-08-01T02:04:56;16.90;99.90
9311;DHT22;4694;52.464;13.480;2023-08-01T02:07:23;16.90;99.90
9311;DHT22;4694;52.464;13.480;2023-08-01T02:09:49;16.90;99.90
9311;DHT22;4694;52.464;13.480;2023-08-01T02:12:17;16.90;99.90
9311;DHT22;4694;52.464;13.480;2023-08-01T02:14:44;16.90;99.90
9311;DHT22;4694;52.464;13.480;2023-08-01T02:17:14;16.90;99.90
9311;DHT22;4694;52.464;13.480;2023-08-01T02:19:40;16.90;99.90
9311;DHT22;4694;52.464;13.480;2023-08-01T02:22:07;16.90;99.90
9311;DHT22;4694;52.464;13.480;2023-08-01T02:24:33;16.90;99.90
9311;DHT22;4694;52.464;13.480;2023-08-01T02:27:00;16.90;99.90
9311;DHT22;4694;52.464;13.480;2023-08-01T02:29:28;16.80;99.90
9311;DHT22;4694;52.464;13.480;2023-08-01T02:31:55;16.80;99.90
9311;DHT22;4694;52.464;13.480;2023-08-01T02:34:22;16.80;99.90
9311;DHT22;4694;52.464;13.480;2023-08-01T02:36:48;16.80;99.90
9311;DHT22;4694;52.464;13.480;2023-08-01T02:39:15;16.80;99.90
9311;DHT22;4694;52.464;13.480;2023-08-01T02:41:42;16.80;99.90
9311;DHT22;4694;52.464;13.480;2023-08-01T02:44:10;16.80;99.90
9311;DHT22;4694;52.464;13.480;2023-08-01T02:46:39;16.80;99.90
9311;DHT22;4694;52.464;13.480;2023-08-01T02:49:06;16.90;99.90
9311;DHT22;4694;52.464;13.480;2023-08-01T02:51:34;16.90;99.90
9311;DHT22;4694;52.464;13.480;2023-08-01T02:54:01;16.90;99.90
9311;DHT22;4694;52.464;13.480;2023-08-01T02:56:27;16.90;99.90
9311;DHT22;4694;52.464;13.480;2023-08-01T02:58:54;16.90;99.90
9311;DHT22;4694;52.464;13.480;2023-08-01T03:01:22;16.90;99.90
9311;DHT22;4694;52.464;13.480;2023-08-01T03:03:51;16.90;99.90
9311;DHT22;4694;52.464;13.480;2023-08-01T03:06:18;16.90;99.90
9311;DHT22;4694;52.464;13.480;2023-08-01T03:08:45;16.90;99.90
9311;DHT22;4694;52.464;13.480;2023-08-01T03:11:11;16.90;99.90
9311;DHT22;4694;52.464;13.480;2023-08-01T03:13:38;16.90;99.90
9311;DHT22;4694;52.464;13.480;2023-08-01T03:16:05;16.90;99.90
9311;DHT22;4694;52.464;13.480;2023-08-01T03:18:33;17.00;99.90
9311;DHT22;4694;52.464;13.480;2023-08-01T03:21:01;16.90;99.90
9311;DHT22;4694;52.464;13.480;2023-08-01T03:23:30;16.90;99.90
9311;DHT22;4694;52.464;13.480;2023-08-01T03:25:57;17.00;99.90
9311;DHT22;4694;52.464;13.480;2023-08-01T03:28:25;17.00;99.90
9311;DHT22;4694;52.464;13.480;2023-08-01T03:30:52;17.00;99.90
9311;DHT22;4694;52.464;13.480;2023-08-01T03:33:19;17.00;99.90
9311;DHT22;4694;52.464;13.480;2023-08-01T03:35:46;16.90;99.90
9311;DHT22;4694;52.464;13.480;2023-08-01T03:38:14;16.90;99.90
9311;DHT22;4694;52.464;13.480;2023-08-01T03:40:41;16.90;99.90
9311;DHT22;4694;52.464;13.480;2023-08-01T03:43:08;16.90;99.90
9311;DHT22;4694;52.464;13.480;2023-08-01T03:45:35;16.90;99.90
9311;DHT22;4694;52.464;13.480;2023-08-01T03:48:02;16.90;99.90
9311;DHT22;4694;52.464;13.480;2023-08-01T03:50:28;16.90;99.90
9311;DHT22;4694;52.464;13.480;2023-08-01T03:52:55;16.80;99.90
9311;DHT22;4694;52.464;13.480;2023-08-01T03:55:23;16.80;99.90
9311;DHT22;4694;52.464;13.480;2023-08-01T03:57:50;16.90;99.90
9311;DHT22;4694;52.464;13.480;2023-08-01T04:00:17;16.90;99.90
9311;DHT22;4694;52.464;13.480;2023-08-01T04:02:44;16.80;99.90
9311;DHT22;4694;52.464;13.480;2023-08-01T04:05:11;16.80;99.90
9311;DHT22;4694;52.464;13.480;2023-08-01T04:07:38;16.90;99.90
9311;DHT22;4694;52.464;13.480;2023-08-01T04:10:05;16.90;99.90
9311;DHT22;4694;52.464;13.480;2023-08-01T04:12:36;16.90;99.90
9311;DHT22;4694;52.464;13.480;2023-08-01T04:15:04;17.00;99.90
9311;DHT22;4694;52.464;13.480;2023-08-01T04:17:31;17.00;99.90
9311;DHT22;4694;52.464;13.480;2023-08-01T04:19:57;17.10;99.90
9311;DHT22;4694;52.464;13.480;2023-08-01T04:22:24;17.10;99.90
9311;DHT22;4694;52.464;13.480;2023-08-01T04:24:51;17.20;99.90
9311;DHT22;4694;52.464;13.480;2023-08-01T04:27:17;17.30;99.90
9311;DHT22;4694;52.464;13.480;2023-08-01T04:29:46;17.30;99.90
9311;DHT22;4694;52.464;13.480;2023-08-01T04:32:12;17.40;99.90
9311;DHT22;4694;52.464;13.480;2023-08-01T04:34:40;17.50;99.90
9311;DHT22;4694;52.464;13.480;2023-08-01T04:37:07;17.50;99.90
9311;DHT22;4694;52.464;13.480;2023-08-01T04:39:33;17.60;99.90
9311;DHT22;4694;52.464;13.480;2023-08-01T04:42:02;17.60;99.90
9311;DHT22;4694;52.464;13.480;2023-08-01T04:44:28;17.60;99.90
9311;DHT22;4694;52.464;13.480;2023-08-01T04:46:57;17.70;99.90
9311;DHT22;4694;52.464;13.480;2023-08-01T04:49:23;17.70;99.90
9311;DHT22;4694;52.464;13.480;2023-08-01T04:51:50;17.80;99.90
9311;DHT22;4694;52.464;13.480;2023-08-01T04:54:17;17.90;99.90
9311;DHT22;4694;52.464;13.480;2023-08-01T04:56:44;17.90;99.90
9311;DHT22;4694;52.464;13.480;2023-08-01T04:59:10;17.90;99.90
9311;DHT22;4694;52.464;13.480;2023-08-01T05:01:37;17.90;99.90
9311;DHT22;4694;52.464;13.480;2023-08-01T05:04:05;17.90;99.90
9311;DHT22;4694;52.464;13.480;2023-08-01T05:06:32;18.00;99.90
9311;DHT22;4694;52.464;13.480;2023-08-01T05:09:00;17.90;99.90
9311;DHT22;4694;52.464;13.480;2023-08-01T05:11:27;17.90;99.90
9311;DHT22;4694;52.464;13.480;2023-08-01T05:13:54;18.00;99.90
9311;DHT22;4694;52.464;13.480;2023-08-01T05:16:21;17.90;99.90
9311;DHT22;4694;52.464;13.480;2023-08-01T05:18:47;17.90;99.90
9311;DHT22;4694;52.464;13.480;2023-08-01T05:21:15;17.90;99.90
9311;DHT22;4694;52.464;13.480;2023-08-01T05:23:42;17.90;99.90
9311;DHT22;4694;52.464;13.480;2023-08-01T05:26:09;17.90;99.90
9311;DHT22;4694;52.464;13.480;2023-08-01T05:28:35;17.90;99.90
9311;DHT22;4694;52.464;13.480;2023-08-01T05:31:02;17.90;99.90
9311;DHT22;4694;52.464;13.480;2023-08-01T05:33:29;17.90;99.90
9311;DHT22;4694;52.464;13.480;2023-08-01T05:35:55;17.90;99.90
9311;DHT22;4694;52.464;13.480;2023-08-01T05:38:23;18.00;99.90
9311;DHT22;4694;52.464;13.480;2023-08-01T05:40:50;18.00;99.90
9311;DHT22;4694;52.464;13.480;2023-08-01T05:43:17;18.00;99.90
9311;DHT22;4694;52.464;13.480;2023-08-01T05:45:43;18.00;99.90
9311;DHT22;4694;52.464;13.480;2023-08-01T05:48:10;18.10;99.90
9311;DHT22;4694;52.464;13.480;2023-08-01T05:50:39;18.10;99.90
9311;DHT22;4694;52.464;13.480;2023-08-01T05:53:06;18.10;99.90
9311;DHT22;4694;52.464;13.480;2023-08-01T05:55:36;18.10;99.90
9311;DHT22;4694;52.464;13.480;2023-08-01T05:58:03;18.20;99.90
9311;DHT22;4694;52.464;13.480;2023-08-01T06:00:30;18.20;99.90
9311;DHT22;4694;52.464;13.480;2023-08-01T06:02:57;18.30;99.90
9311;DHT22;4694;52.464;13.480;2023-08-01T06:05:24;18.30;99.90
9311;DHT22;4694;52.464;13.480;2023-08-01T06:07:50;18.30;99.90
9311;DHT22;4694;52.464;13.480;2023-08-01T06:10:17;18.30;99.90
9311;DHT22;4694;52.464;13.480;2023-08-01T06:12:46;18.30;99.90
9311;DHT22;4694;52.464;13.480;2023-08-01T06:15:13;18.30;99.90
9311;DHT22;4694;52.464;13.480;2023-08-01T06:17:39;18.30;99.90
9311;DHT22;4694;52.464;13.480;2023-08-01T06:20:07;18.30;99.90
9311;DHT22;4694;52.464;13.480;2023-08-01T06:22:34;18.30;99.90
9311;DHT22;4694;52.464;13.480;2023-08-01T06:25:01;18.30;99.90
9311;DHT22;4694;52.464;13.480;2023-08-01T06:27:27;18.30;99.90
9311;DHT22;4694;52.464;13.480;2023-08-01T06:29:55;18.40;99.90
9311;DHT22;4694;52.464;13.480;2023-08-01T06:32:22;18.40;99.90
9311;DHT22;4694;52.464;13.480;2023-08-01T06:34:49;18.40;99.90
9311;DHT22;4694;52.464;13.480;2023-08-01T06:37:16;18.50;99.90
9311;DHT22;4694;52.464;13.480;2023-08-01T06:39:43;18.50;99.90
9311;DHT22;4694;52.464;13.480;2023-08-01T06:42:10;18.50;99.90
9311;DHT22;4694;52.464;13.480;2023-08-01T06:44:37;18.50;99.90
9311;DHT22;4694;52.464;13.480;2023-08-01T06:47:06;18.40;99.90
9311;DHT22;4694;52.464;13.480;2023-08-01T06:49:33;18.40;99.90
9311;DHT22;4694;52.464;13.480;2023-08-01T06:52:00;18.50;99.90
9311;DHT22;4694;52.464;13.480;2023-08-01T06:54:26;18.50;99.90
9311;DHT22;4694;52.464;13.480;2023-08-01T06:56:53;18.40;99.90
9311;DHT22;4694;52.464;13.480;2023-08-01T06:59:20;18.40;99.90
9311;DHT22;4694;52.464;13.480;2023-08-01T07:01:47;18.40;99.90
9311;DHT22;4694;52.464;13.480;2023-08-01T07:04:15;18.50;99.90
9311;DHT22;4694;52.464;13.480;2023-08-01T07:06:43;18.40;99.90
9311;DHT22;4694;52.464;13.480;2023-08-01T07:09:11;18.40;99.90
9311;DHT22;4694;52.464;13.480;2023-08-01T07:11:38;18.40;99.90
9311;DHT22;4694;52.464;13.480;2023-08-01T07:14:05;18.40;99.90
9311;DHT22;4694;52.464;13.480;2023-08-01T07:16:31;18.50;99.90
9311;DHT22;4694;52.464;13.480;2023-08-01T07:19:00;18.50;99.90
9311;DHT22;4694;52.464;13.480;2023-08-01T07:21:37;18.60;99.90
9311;DHT22;4694;52.464;13.480;2023-08-01T07:24:04;18.70;99.90
9311;DHT22;4694;52.464;13.480;2023-08-01T07:26:31;18.70;99.90
9311;DHT22;4694;52.464;13.480;2023-08-01T07:29:00;18.80;99.90
9311;DHT22;4694;52.464;13.480;2023-08-01T07:31:27;18.90;99.90
9311;DHT22;4694;52.464;13.480;2023-08-01T07:33:54;19.00;99.90
9311;DHT22;4694;52.464;13.480;2023-08-01T07:36:21;19.10;99.90
9311;DHT22;4694;52.464;13.480;2023-08-01T07:38:49;19.30;99.90
9311;DHT22;4694;52.464;13.480;2023-08-01T07:41:15;19.50;99.90
9311;DHT22;4694;52.464;13.480;2023-08-01T07:43:42;19.70;99.90
9311;DHT22;4694;52.464;13.480;2023-08-01T07:46:10;19.80;99.90
9311;DHT22;4694;52.464;13.480;2023-08-01T07:48:43;19.80;99.90
9311;DHT22;4694;52.464;13.480;2023-08-01T07:51:10;19.80;99.90
9311;DHT22;4694;52.464;13.480;2023-08-01T07:53:37;19.80;99.90
9311;DHT22;4694;52.464;13.480;2023-08-01T07:56:05;19.80;99.90
9311;DHT22;4694;52.464;13.480;2023-08-01T07:58:34;19.90;99.90
9311;DHT22;4694;52.464;13.480;2023-08-01T08:01:03;19.90;99.90
9311;DHT22;4694;52.464;13.480;2023-08-01T08:03:29;20.10;99.90
9311;DHT22;4694;52.464;13.480;2023-08-01T08:05:56;20.20;99.90
9311;DHT22;4694;52.464;13.480;2023-08-01T08:08:24;20.40;99.90
9311;DHT22;4694;52.464;13.480;2023-08-01T08:10:50;20.50;99.90
9311;DHT22;4694;52.464;13.480;2023-08-01T08:13:18;20.70;99.90
9311;DHT22;4694;52.464;13.480;2023-08-01T08:15:46;20.90;99.90
9311;DHT22;4694;52.464;13.480;2023-08-01T08:18:12;21.00;99.90
9311;DHT22;4694;52.464;13.480;2023-08-01T08:20:43;21.10;99.90
9311;DHT22;4694;52.464;13.480;2023-08-01T08:23:10;21.30;99.90
9311;DHT22;4694;52.464;13.480;2023-08-01T08:25:39;21.40;99.90
9311;DHT22;4694;52.464;13.480;2023-08-01T08:28:06;21.50;99.90
9311;DHT22;4694;52.464;13.480;2023-08-01T08:30:35;21.60;99.90
9311;DHT22;4694;52.464;13.480;2023-08-01T08:33:03;21.90;99.90
9311;DHT22;4694;52.464;13.480;2023-08-01T08:35:32;22.20;99.90
9311;DHT22;4694;52.464;13.480;2023-08-01T08:37:59;22.60;99.90
9311;DHT22;4694;52.464;13.480;2023-08-01T08:40:26;22.90;99.90
9311;DHT22;4694;52.464;13.480;2023-08-01T08:42:53;23.30;99.90
9311;DHT22;4694;52.464;13.480;2023-08-01T08:45:20;23.40;99.90
9311;DHT22;4694;52.464;13.480;2023-08-01T08:47:55;23.40;99.90
9311;DHT22;4694;52.464;13.480;2023-08-01T08:50:22;23.30;99.90
9311;DHT22;4694;52.464;13.480;2023-08-01T08:52:49;23.20;99.90
9311;DHT22;4694;52.464;13.480;2023-08-01T08:55:17;23.00;99.90
9311;DHT22;4694;52.464;13.480;2023-08-01T08:57:48;22.70;99.90
9311;DHT22;4694;52.464;13.480;2023-08-01T09:00:17;22.70;99.90
9311;DHT22;4694;52.464;13.480;2023-08-01T09:02:44;22.50;99.90
9311;DHT22;4694;52.464;13.480;2023-08-01T09:05:12;22.40;99.90
9311;DHT22;4694;52.464;13.480;2023-08-01T09:07:42;22.40;99.90
9311;DHT22;4694;52.464;13.480;2023-08-01T09:10:09;22.40;99.90
9311;DHT22;4694;52.464;13.480;2023-08-01T09:12:36;22.50;99.90
9311;DHT22;4694;52.464;13.480;2023-08-01T09:15:06;22.60;99.90
9311;DHT22;4694;52.464;13.480;2023-08-01T09:17:34;22.70;99.90
9311;DHT22;4694;52.464;13.480;2023-08-01T09:20:05;22.80;99.90
9311;DHT22;4694;52.464;13.480;2023-08-01T09:22:43;23.00;99.90
9311;DHT22;4694;52.464;13.480;2023-08-01T09:25:10;23.20;99.90
9311;DHT22;4694;52.464;13.480;2023-08-01T09:27:37;23.40;99.90
9311;DHT22;4694;52.464;13.480;2023-08-01T09:30:09;23.60;99.90
9311;DHT22;4694;52.464;13.480;2023-08-01T09:32:37;23.80;99.90
9311;DHT22;4694;52.464;13.480;2023-08-01T09:35:05;23.90;99.90
9311;DHT22;4694;52.464;13.480;2023-08-01T09:37:39;23.80;99.90
9311;DHT22;4694;52.464;13.480;2023-08-01T09:40:08;23.80;99.90
9311;DHT22;4694;52.464;13.480;2023-08-01T09:42:39;23.80;99.90
9311;DHT22;4694;52.464;13.480;2023-08-01T09:45:12;23.40;99.90
9311;DHT22;4694;52.464;13.480;2023-08-01T09:47:40;23.10;99.90
9311;DHT22;4694;52.464;13.480;2023-08-01T09:50:08;22.70;99.90
9311;DHT22;4694;52.464;13.480;2023-08-01T09:52:35;22.50;99.90
9311;DHT22;4694;52.464;13.480;2023-08-01T09:55:02;22.20;99.90
9311;DHT22;4694;52.464;13.480;2023-08-01T09:57:31;22.10;99.90
9311;DHT22;4694;52.464;13.480;2023-08-01T09:59:58;22.20;99.90
9311;DHT22;4694;52.464;13.480;2023-08-01T10:02:27;22.30;99.90
9311;DHT22;4694;52.464;13.480;2023-08-01T10:04:57;22.40;99.90
9311;DHT22;4694;52.464;13.480;2023-08-01T10:07:26;22.50;99.90
9311;DHT22;4694;52.464;13.480;2023-08-01T10:09:58;22.60;99.90
9311;DHT22;4694;52.464;13.480;2023-08-01T10:12:26;22.70;99.90
9311;DHT22;4694;52.464;13.480;2023-08-01T10:14:54;22.80;99.90
9311;DHT22;4694;52.464;13.480;2023-08-01T10:17:24;22.90;99.90
9311;DHT22;4694;52.464;13.480;2023-08-01T10:19:53;23.00;99.90
9311;DHT22;4694;52.464;13.480;2023-08-01T10:22:22;22.90;99.90
9311;DHT22;4694;52.464;13.480;2023-08-01T10:24:50;22.70;99.90
9311;DHT22;4694;52.464;13.480;2023-08-01T10:27:19;22.50;99.90
9311;DHT22;4694;52.464;13.480;2023-08-01T10:29:57;22.20;99.90
9311;DHT22;4694;52.464;13.480;2023-08-01T10:32:31;22.10;99.90
9311;DHT22;4694;52.464;13.480;2023-08-01T10:35:00;21.90;99.90
9311;DHT22;4694;52.464;13.480;2023-08-01T10:37:27;21.90;99.90
9311;DHT22;4694;52.464;13.480;2023-08-01T10:40:06;21.90;99.90
9311;DHT22;4694;52.464;13.480;2023-08-01T10:42:42;21.90;99.90
9311;DHT22;4694;52.464;13.480;2023-08-01T10:45:22;21.80;99.90
9311;DHT22;4694;52.464;13.480;2023-08-01T10:47:49;21.80;99.90
9311;DHT22;4694;52.464;13.480;2023-08-01T10:50:17;21.70;99.90
9311;DHT22;4694;52.464;13.480;2023-08-01T10:52:45;21.70;99.90
9311;DHT22;4694;52.464;13.480;2023-08-01T10:55:13;21.60;99.90
9311;DHT22;4694;52.464;13.480;2023-08-01T10:57:49;21.50;99.90
9311;DHT22;4694;52.464;13.480;2023-08-01T11:00:16;21.20;99.90
9311;DHT22;4694;52.464;13.480;2023-08-01T11:02:50;20.70;99.90
9311;DHT22;4694;52.464;13.480;2023-08-01T11:05:17;20.10;99.90
9311;DHT22;4694;52.464;13.480;2023-08-01T11:07:53;19.70;99.90
9311;DHT22;4694;52.464;13.480;2023-08-01T11:10:24;19.40;99.90
9311;DHT22;4694;52.464;13.480;2023-08-01T11:12:55;19.10;99.90
9311;DHT22;4694;52.464;13.480;2023-08-01T11:15:22;19.00;99.90
9311;DHT22;4694;52.464;13.480;2023-08-01T11:17:51;18.90;99.90
9311;DHT22;4694;52.464;13.480;2023-08-01T11:20:20;18.90;99.90
9311;DHT22;4694;52.464;13.480;2023-08-01T11:22:53;18.90;99.90
9311;DHT22;4694;52.464;13.480;2023-08-01T11:25:31;18.90;99.90
9311;DHT22;4694;52.464;13.480;2023-08-01T11:28:03;18.90;99.90
9311;DHT22;4694;52.464;13.480;2023-08-01T11:30:31;18.90;99.90
9311;DHT22;4694;52.464;13.480;2023-08-01T11:33:00;18.90;99.90
9311;DHT22;4694;52.464;13.480;2023-08-01T11:35:28;18.80;99.90
9311;DHT22;4694;52.464;13.480;2023-08-01T11:37:55;18.80;99.90
9311;DHT22;4694;52.464;13.480;2023-08-01T11:40:24;18.80;99.90
9311;DHT22;4694;52.464;13.480;2023-08-01T11:42:56;18.80;99.90
9311;DHT22;4694;52.464;13.480;2023-08-01T11:45:24;18.80;99.90
9311;DHT22;4694;52.464;13.480;2023-08-01T11:47:51;18.80;99.90
9311;DHT22;4694;52.464;13.480;2023-08-01T11:50:22;18.80;99.90
9311;DHT22;4694;52.464;13.480;2023-08-01T11:52:50;18.90;99.90
9311;DHT22;4694;52.464;13.480;2023-08-01T11:55:21;19.00;99.90
9311;DHT22;4694;52.464;13.480;2023-08-01T11:57:52;19.10;99.90
9311;DHT22;4694;52.464;13.480;2023-08-01T12:00:22;19.20;99.90
9311;DHT22;4694;52.464;13.480;2023-08-01T12:02:49;19.20;99.90
9311;DHT22;4694;52.464;13.480;2023-08-01T12:05:30;19.40;99.90
9311;DHT22;4694;52.464;13.480;2023-08-01T12:08:08;19.50;99.90
9311;DHT22;4694;52.464;13.480;2023-08-01T12:10:37;20.10;99.90
9311;DHT22;4694;52.464;13.480;2023-08-01T12:13:04;20.50;99.90
9311;DHT22;4694;52.464;13.480;2023-08-01T12:15:30;20.70;99.90
9311;DHT22;4694;52.464;13.480;2023-08-01T12:17:59;21.10;99.90
9311;DHT22;4694;52.464;13.480;2023-08-01T12:20:27;22.00;99.90
9311;DHT22;4694;52.464;13.480;2023-08-01T12:22:54;23.10;99.90
9311;DHT22;4694;52.464;13.480;2023-08-01T12:25:20;23.90;99.90
9311;DHT22;4694;52.464;13.480;2023-08-01T12:27:47;24.00;99.90
9311;DHT22;4694;52.464;13.480;2023-08-01T12:30:14;23.50;99.90
9311;DHT22;4694;52.464;13.480;2023-08-01T12:32:41;23.10;99.90
9311;DHT22;4694;52.464;13.480;2023-08-01T12:35:08;22.60;99.90
9311;DHT22;4694;52.464;13.480;2023-08-01T12:37:36;22.20;99.90
9311;DHT22;4694;52.464;13.480;2023-08-01T12:40:04;21.80;99.90
9311;DHT22;4694;52.464;13.480;2023-08-01T12:42:32;21.80;99.90
9311;DHT22;4694;52.464;13.480;2023-08-01T12:44:58;22.60;99.90
9311;DHT22;4694;52.464;13.480;2023-08-01T12:47:25;24.20;99.90
9311;DHT22;4694;52.464;13.480;2023-08-01T12:49:52;26.00;99.90
9311;DHT22;4694;52.464;13.480;2023-08-01T12:52:22;27.10;99.90
9311;DHT22;4694;52.464;13.480;2023-08-01T12:54:51;26.80;99.90
9311;DHT22;4694;52.464;13.480;2023-08-01T12:57:18;26.30;99.90
9311;DHT22;4694;52.464;13.480;2023-08-01T12:59:45;25.30;99.90
9311;DHT22;4694;52.464;13.480;2023-08-01T13:02:12;24.90;99.90
9311;DHT22;4694;52.464;13.480;2023-08-01T13:04:40;24.80;99.90
9311;DHT22;4694;52.464;13.480;2023-08-01T13:07:07;24.80;99.90
9311;DHT22;4694;52.464;13.480;2023-08-01T13:09:33;25.30;99.90
9311;DHT22;4694;52.464;13.480;2023-08-01T13:12:02;25.50;99.90
9311;DHT22;4694;52.464;13.480;2023-08-01T13:14:31;25.60;99.90
9311;DHT22;4694;52.464;13.480;2023-08-01T13:16:58;25.50;99.90
9311;DHT22;4694;52.464;13.480;2023-08-01T13:19:24;25.30;99.90
9311;DHT22;4694;52.464;13.480;2023-08-01T13:21:51;26.00;99.90
9311;DHT22;4694;52.464;13.480;2023-08-01T13:24:18;27.30;99.90
9311;DHT22;4694;52.464;13.480;2023-08-01T13:26:45;28.50;99.90
9311;DHT22;4694;52.464;13.480;2023-08-01T13:29:14;28.30;99.90
9311;DHT22;4694;52.464;13.480;2023-08-01T13:31:41;28.10;99.90
9311;DHT22;4694;52.464;13.480;2023-08-01T13:34:08;28.10;99.90
9311;DHT22;4694;52.464;13.480;2023-08-01T13:36:35;28.10;99.70
9311;DHT22;4694;52.464;13.480;2023-08-01T13:39:03;28.10;99.40
9311;DHT22;4694;52.464;13.480;2023-08-01T13:41:29;27.40;99.90
9311;DHT22;4694;52.464;13.480;2023-08-01T13:43:59;27.00;99.90
9311;DHT22;4694;52.464;13.480;2023-08-01T13:46:27;26.70;99.90
9311;DHT22;4694;52.464;13.480;2023-08-01T13:48:57;26.60;99.90
9311;DHT22;4694;52.464;13.480;2023-08-01T13:51:27;26.70;99.90
9311;DHT22;4694;52.464;13.480;2023-08-01T13:53:53;27.00;99.90
9311;DHT22;4694;52.464;13.480;2023-08-01T13:56:20;26.90;99.90
9311;DHT22;4694;52.464;13.480;2023-08-01T13:58:49;26.40;99.90
9311;DHT22;4694;52.464;13.480;2023-08-01T14:01:16;26.00;99.90
9311;DHT22;4694;52.464;13.480;2023-08-01T14:03:45;26.40;99.90
9311;DHT22;4694;52.464;13.480;2023-08-01T14:06:13;27.10;99.90
9311;DHT22;4694;52.464;13.480;2023-08-01T14:08:40;27.50;99.60
9311;DHT22;4694;52.464;13.480;2023-08-01T14:11:08;27.80;99.40
9311;DHT22;4694;52.464;13.480;2023-08-01T14:13:36;28.00;98.70
9311;DHT22;4694;52.464;13.480;2023-08-01T14:16:03;27.70;98.80
9311;DHT22;4694;52.464;13.480;2023-08-01T14:18:29;27.00;99.20
9311;DHT22;4694;52.464;13.480;2023-08-01T14:20:58;26.80;99.90
9311;DHT22;4694;52.464;13.480;2023-08-01T14:23:24;27.30;99.70
9311;DHT22;4694;52.464;13.480;2023-08-01T14:25:51;27.70;99.00
9311;DHT22;4694;52.464;13.480;2023-08-01T14:28:18;27.40;98.70
9311;DHT22;4694;52.464;13.480;2023-08-01T14:30:45;27.00;98.90
9311;DHT22;4694;52.464;13.480;2023-08-01T14:33:11;27.10;99.10
9311;DHT22;4694;52.464;13.480;2023-08-01T14:35:40;27.30;98.70
9311;DHT22;4694;52.464;13.480;2023-08-01T14:38:09;26.80;98.00
9311;DHT22;4694;52.464;13.480;2023-08-01T14:40:36;26.30;98.40
9311;DHT22;4694;52.464;13.480;2023-08-01T14:43:04;26.20;99.60
9311;DHT22;4694;52.464;13.480;2023-08-01T14:45:31;26.90;99.00
9311;DHT22;4694;52.464;13.480;2023-08-01T14:47:58;27.50;97.50
9311;DHT22;4694;52.464;13.480;2023-08-01T14:50:25;27.80;96.80
9311;DHT22;4694;52.464;13.480;2023-08-01T14:52:51;28.40;96.50
9311;DHT22;4694;52.464;13.480;2023-08-01T14:55:21;28.70;95.70
9311;DHT22;4694;52.464;13.480;2023-08-01T14:57:48;28.60;94.50
9311;DHT22;4694;52.464;13.480;2023-08-01T15:00:16;28.10;94.80
9311;DHT22;4694;52.464;13.480;2023-08-01T15:02:43;27.60;95.00
9311;DHT22;4694;52.464;13.480;2023-08-01T15:05:12;26.80;95.40
9311;DHT22;4694;52.464;13.480;2023-08-01T15:07:38;25.90;96.20
9311;DHT22;4694;52.464;13.480;2023-08-01T15:10:05;25.20;97.80
9311;DHT22;4694;52.464;13.480;2023-08-01T15:12:33;24.70;98.70
9311;DHT22;4694;52.464;13.480;2023-08-01T15:15:00;24.30;99.90
9311;DHT22;4694;52.464;13.480;2023-08-01T15:17:27;24.00;99.90
9311;DHT22;4694;52.464;13.480;2023-08-01T15:19:54;23.70;99.90
9311;DHT22;4694;52.464;13.480;2023-08-01T15:22:20;23.60;99.90
9311;DHT22;4694;52.464;13.480;2023-08-01T15:24:48;23.40;99.90
9311;DHT22;4694;52.464;13.480;2023-08-01T15:27:15;23.10;99.90
9311;DHT22;4694;52.464;13.480;2023-08-01T15:29:45;22.70;99.90
9311;DHT22;4694;52.464;13.480;2023-08-01T15:32:13;21.60;99.90
9311;DHT22;4694;52.464;13.480;2023-08-01T15:34:40;20.70;99.90
9311;DHT22;4694;52.464;13.480;2023-08-01T15:37:07;19.90;99.90
9311;DHT22;4694;52.464;13.480;2023-08-01T15:39:34;19.40;99.90
9311;DHT22;4694;52.464;13.480;2023-08-01T15:42:00;18.90;99.90
9311;DHT22;4694;52.464;13.480;2023-08-01T15:44:27;18.70;99.90
9311;DHT22;4694;52.464;13.480;2023-08-01T15:46:55;18.50;99.90
9311;DHT22;4694;52.464;13.480;2023-08-01T15:49:22;18.40;99.90